Time;durP1;ratioP1;P1;durP2;ratioP2;P2;SDS_P1;SDS_P2;PMS_P1;PMS_P2;Temp;Humidity;BMP_temperature;BMP_pressure;BME280_temperature;BME280_humidity;BME280_pressure;Samples;Min_cycle;Max_cycle;Signal;HPM_P1;HPM_P2
2022/03/03 00:01:17;;;;;;;64.70;35.63;;;1.60;99.90;;;;;;6400112;22;20076;-85
2022/03/03 00:03:43;;;;;;;71.43;38.33;;;1.50;99.90;;;;;;6401984;22;20014;-87
2022/03/03 00:06:09;;;;;;;73.73;40.60;;;1.40;99.90;;;;;;6373964;22;20018;-83
2022/03/03 00:08:35;;;;;;;77.63;40.42;;;1.30;99.90;;;;;;6402159;22;20010;-87
2022/03/03 00:11:00;;;;;;;75.50;40.03;;;1.30;99.90;;;;;;6400596;22;20523;-91
2022/03/03 00:13:26;;;;;;;83.82;41.33;;;1.20;99.90;;;;;;6400507;22;20024;-89
2022/03/03 00:15:52;;;;;;;75.55;40.42;;;1.10;99.90;;;;;;6402187;22;20074;-88
2022/03/03 00:18:17;;;;;;;84.30;41.72;;;1.10;99.90;;;;;;6400922;22;20010;-84
2022/03/03 00:20:43;;;;;;;81.15;41.78;;;1.10;99.90;;;;;;6375735;22;20022;-87
2022/03/03 00:23:09;;;;;;;79.78;41.38;;;1.10;99.90;;;;;;6402425;22;20058;-87
2022/03/03 00:25:34;;;;;;;77.95;40.45;;;1.10;99.90;;;;;;6404035;22;20010;-84
2022/03/03 00:28:04;;;;;;;86.18;41.40;;;1.10;99.90;;;;;;6376121;22;20018;-85
2022/03/03 00:30:29;;;;;;;83.43;41.55;;;1.10;99.90;;;;;;6404161;22;20168;-85
2022/03/03 00:32:55;;;;;;;90.57;43.00;;;1.10;99.90;;;;;;6375582;22;20088;-88
2022/03/03 00:35:21;;;;;;;75.83;40.07;;;1.20;99.90;;;;;;6402404;22;20399;-88
2022/03/03 00:37:47;;;;;;;81.13;41.55;;;1.20;99.90;;;;;;6404001;22;20014;-86
2022/03/03 00:40:13;;;;;;;80.32;41.40;;;1.20;99.90;;;;;;6403797;22;20417;-85
2022/03/03 00:42:39;;;;;;;86.20;41.63;;;1.30;99.90;;;;;;6403772;22;20016;-88
2022/03/03 00:45:05;;;;;;;77.17;40.80;;;1.30;99.90;;;;;;6402577;22;20014;-86
2022/03/03 00:47:31;;;;;;;72.38;39.22;;;1.30;99.90;;;;;;6402305;22;20751;-86
2022/03/03 00:49:57;;;;;;;74.82;38.60;;;1.40;99.90;;;;;;6402101;22;20093;-85
2022/03/03 00:52:23;;;;;;;78.13;40.20;;;1.40;99.90;;;;;;6403847;22;20039;-84
2022/03/03 00:54:49;;;;;;;76.97;39.70;;;1.40;99.90;;;;;;6403768;22;20021;-85
2022/03/03 00:57:15;;;;;;;74.03;39.57;;;1.40;99.90;;;;;;6403558;22;20010;-84
2022/03/03 00:59:40;;;;;;;84.77;43.50;;;1.40;99.90;;;;;;6402119;22;20100;-86
2022/03/03 01:02:06;;;;;;;89.17;44.70;;;1.30;99.90;;;;;;6403478;22;20018;-85
2022/03/03 01:04:31;;;;;;;87.03;43.40;;;1.30;99.90;;;;;;6403477;22;20010;-84
2022/03/03 01:06:57;;;;;;;89.77;44.17;;;1.30;99.90;;;;;;6403486;22;20523;-87
2022/03/03 01:09:23;;;;;;;92.55;45.90;;;1.30;99.90;;;;;;6403286;22;20443;-86
2022/03/03 01:11:48;;;;;;;90.00;44.67;;;1.30;99.90;;;;;;6401479;22;20026;-84
2022/03/03 01:14:16;;;;;;;87.78;42.83;;;1.30;99.90;;;;;;6403517;22;20021;-84
2022/03/03 01:16:42;;;;;;;86.35;43.28;;;1.30;99.90;;;;;;6403266;22;20018;-85
2022/03/03 01:19:07;;;;;;;90.45;45.03;;;1.30;99.90;;;;;;6402084;22;20097;-84
2022/03/03 01:21:33;;;;;;;91.97;44.33;;;1.30;99.90;;;;;;6403319;22;20084;-84
2022/03/03 01:23:59;;;;;;;89.68;43.92;;;1.40;99.90;;;;;;6401895;22;20506;-82
2022/03/03 01:26:24;;;;;;;84.85;42.90;;;1.40;99.90;;;;;;6403596;22;20339;-83
2022/03/03 01:28:50;;;;;;;79.37;42.70;;;1.40;99.90;;;;;;6403151;22;20017;-84
2022/03/03 01:31:16;;;;;;;82.63;42.00;;;1.40;99.90;;;;;;6401773;22;20451;-90
2022/03/03 01:33:41;;;;;;;80.32;42.40;;;1.30;99.90;;;;;;6403085;22;20312;-82
2022/03/03 01:36:07;;;;;;;81.43;42.25;;;1.30;99.90;;;;;;6375009;22;20036;-86
2022/03/03 01:38:33;;;;;;;88.90;43.00;;;1.30;99.90;;;;;;6403069;22;20013;-84
2022/03/03 01:40:59;;;;;;;84.13;42.55;;;1.30;99.90;;;;;;6403225;22;20713;-82
2022/03/03 01:43:25;;;;;;;84.38;42.90;;;1.30;99.90;;;;;;6374813;22;20401;-84
2022/03/03 01:45:50;;;;;;;83.15;42.80;;;1.30;99.90;;;;;;6401539;22;20014;-84
2022/03/03 01:48:16;;;;;;;78.72;40.65;;;1.30;99.90;;;;;;6403098;22;20063;-85
2022/03/03 01:50:42;;;;;;;81.25;41.28;;;1.30;99.90;;;;;;6401345;22;20022;-84
2022/03/03 01:53:07;;;;;;;83.60;41.97;;;1.20;99.90;;;;;;6402859;22;20074;-84
2022/03/03 01:55:33;;;;;;;72.37;39.97;;;1.20;99.90;;;;;;6401399;22;20021;-84
2022/03/03 01:58:03;;;;;;;77.60;41.00;;;1.20;99.90;;;;;;6400989;22;20014;-86
2022/03/03 02:05:40;;;;;;;75.90;41.15;;;1.10;99.90;;;;;;6371067;22;20022;-83
2022/03/03 02:08:05;;;;;;;73.32;40.63;;;1.10;99.90;;;;;;6317000;22;20018;-82
2022/03/03 02:10:31;;;;;;;73.13;39.50;;;1.10;99.90;;;;;;6343257;22;20486;-86
2022/03/03 02:12:57;;;;;;;68.73;40.03;;;1.10;99.90;;;;;;6317256;22;20017;-84
2022/03/03 02:15:23;;;;;;;71.63;39.28;;;1.10;99.90;;;;;;6342681;22;20581;-84
2022/03/03 02:17:54;;;;;;;72.30;40.57;;;1.10;99.90;;;;;;6317779;22;20007;-88
2022/03/03 02:20:19;;;;;;;75.93;40.13;;;1.00;99.90;;;;;;6316606;22;20014;-84
2022/03/03 02:22:45;;;;;;;75.47;40.17;;;1.00;99.90;;;;;;6317210;22;20110;-87
2022/03/03 02:25:11;;;;;;;71.68;38.70;;;0.90;99.90;;;;;;6315927;22;20017;-87
2022/03/03 02:27:37;;;;;;;71.10;38.78;;;0.90;99.90;;;;;;6342528;22;20351;-87
2022/03/03 02:30:03;;;;;;;67.80;39.13;;;0.80;99.90;;;;;;6342436;22;20055;-85
2022/03/03 02:32:29;;;;;;;72.18;38.95;;;0.70;99.90;;;;;;6316776;22;20063;-86
2022/03/03 02:34:55;;;;;;;68.20;39.13;;;0.70;99.90;;;;;;6316887;22;20369;-88
2022/03/03 02:37:20;;;;;;;64.40;36.05;;;0.80;99.90;;;;;;6342729;22;20522;-88
2022/03/03 02:39:46;;;;;;;72.07;38.53;;;0.80;99.90;;;;;;6343229;22;20006;-87
2022/03/03 02:42:12;;;;;;;68.77;37.37;;;0.80;99.90;;;;;;6316428;22;20054;-87
2022/03/03 02:44:38;;;;;;;73.20;39.17;;;0.70;99.90;;;;;;6342782;22;20347;-84
2022/03/03 02:47:04;;;;;;;69.32;39.90;;;0.70;99.90;;;;;;6342329;22;20101;-85
2022/03/03 02:49:30;;;;;;;75.93;39.73;;;0.70;99.90;;;;;;6342974;22;20014;-87
2022/03/03 02:51:55;;;;;;;74.50;39.95;;;0.60;99.90;;;;;;6370920;22;20021;-85
2022/03/03 02:54:21;;;;;;;76.35;40.10;;;0.60;99.90;;;;;;6370711;22;20046;-90
2022/03/03 02:59:31;;;;;;;81.20;41.25;;;0.70;99.90;;;;;;6370488;22;20037;-85
2022/03/03 03:01:57;;;;;;;79.38;40.97;;;0.70;99.90;;;;;;6370417;22;20389;-86
2022/03/03 03:04:22;;;;;;;75.90;40.60;;;0.80;99.90;;;;;;6342232;22;20094;-86
2022/03/03 03:06:48;;;;;;;73.53;40.20;;;0.80;99.90;;;;;;6342380;22;20023;-85
2022/03/03 03:09:14;;;;;;;74.53;40.22;;;0.80;99.90;;;;;;6370640;22;20482;-85
2022/03/03 03:11:40;;;;;;;75.53;39.67;;;0.80;99.90;;;;;;6342169;22;20014;-86
2022/03/03 03:14:06;;;;;;;74.63;41.55;;;0.80;99.90;;;;;;6342960;22;20503;-88
2022/03/03 03:16:32;;;;;;;79.30;39.75;;;0.80;99.90;;;;;;6342746;22;20026;-85
2022/03/03 03:18:57;;;;;;;71.05;38.25;;;0.80;99.90;;;;;;6370669;22;20018;-84
2022/03/03 03:21:23;;;;;;;72.47;39.53;;;0.80;99.90;;;;;;6342567;22;20018;-88
2022/03/03 03:23:49;;;;;;;77.15;39.70;;;0.70;99.90;;;;;;6342824;22;20352;-86
2022/03/03 03:26:14;;;;;;;73.72;39.30;;;0.70;99.90;;;;;;6370277;22;20381;-87
2022/03/03 03:28:40;;;;;;;76.85;39.47;;;0.70;99.90;;;;;;6342040;22;20438;-87
2022/03/03 03:31:06;;;;;;;77.13;40.97;;;0.70;99.90;;;;;;6342835;22;20026;-88
2022/03/03 03:33:31;;;;;;;70.68;40.55;;;0.70;99.90;;;;;;6370503;22;20132;-85
2022/03/03 03:35:57;;;;;;;85.45;41.28;;;0.70;99.90;;;;;;6369998;22;20018;-90
2022/03/03 03:38:22;;;;;;;76.10;41.83;;;0.70;99.90;;;;;;6342691;22;20029;-89
2022/03/03 03:40:48;;;;;;;81.95;41.42;;;0.70;99.90;;;;;;6342712;22;20029;-85
2022/03/03 03:43:14;;;;;;;74.32;39.17;;;0.70;99.90;;;;;;6370203;22;20018;-90
2022/03/03 03:45:40;;;;;;;78.50;40.35;;;0.80;99.90;;;;;;6341891;22;20014;-85
2022/03/03 03:48:05;;;;;;;77.18;40.55;;;0.80;99.90;;;;;;6342423;22;20015;-89
2022/03/03 03:50:31;;;;;;;74.22;40.53;;;0.80;99.90;;;;;;6342446;22;20097;-87
2022/03/03 03:52:57;;;;;;;72.40;39.17;;;0.70;99.90;;;;;;6343351;22;20014;-84
2022/03/03 03:55:23;;;;;;;66.72;38.78;;;0.70;99.90;;;;;;6344313;22;20022;-85
2022/03/03 03:57:48;;;;;;;73.33;41.23;;;0.70;99.90;;;;;;6344502;22;20079;-89
2022/03/03 04:00:15;;;;;;;74.25;39.72;;;0.70;99.90;;;;;;6344437;22;20253;-86
2022/03/03 04:02:42;;;;;;;73.60;39.10;;;0.60;99.90;;;;;;6372176;22;20347;-89
2022/03/03 04:05:08;;;;;;;68.55;38.88;;;0.50;99.90;;;;;;6344235;22;20396;-86
2022/03/03 04:07:34;;;;;;;70.38;38.70;;;0.50;99.90;;;;;;6344591;22;20454;-85
2022/03/03 04:10:00;;;;;;;64.88;37.67;;;0.50;99.90;;;;;;6344001;22;20023;-85
2022/03/03 04:12:25;;;;;;;69.63;37.90;;;0.50;99.90;;;;;;6344382;22;20067;-87
2022/03/03 04:14:52;;;;;;;66.03;35.83;;;0.40;99.90;;;;;;6344302;22;20075;-87
2022/03/03 04:17:18;;;;;;;63.60;37.22;;;0.40;99.90;;;;;;6344343;22;20029;-85
2022/03/03 04:19:43;;;;;;;66.75;36.33;;;0.30;99.90;;;;;;6372127;22;20010;-87
2022/03/03 04:22:09;;;;;;;66.43;39.30;;;0.30;99.90;;;;;;6372482;22;20022;-85
2022/03/03 04:24:35;;;;;;;70.18;38.45;;;0.30;99.90;;;;;;6318175;22;20049;-88
2022/03/03 04:27:00;;;;;;;69.13;39.50;;;0.20;99.90;;;;;;6372372;22;20522;-84
2022/03/03 04:29:26;;;;;;;74.55;38.92;;;0.20;99.90;;;;;;6372101;22;20046;-89
2022/03/03 04:31:53;;;;;;;65.38;37.75;;;0.20;99.90;;;;;;6343830;22;20025;-86
2022/03/03 04:34:20;;;;;;;67.30;38.25;;;0.20;99.90;;;;;;6344127;22;20026;-84
2022/03/03 04:36:46;;;;;;;64.75;38.85;;;0.20;99.90;;;;;;6343950;22;20466;-85
2022/03/03 04:39:12;;;;;;;64.72;37.00;;;0.20;99.90;;;;;;6344030;22;20466;-86
2022/03/03 04:41:39;;;;;;;67.57;37.42;;;0.20;99.90;;;;;;6343980;22;20015;-87
2022/03/03 04:44:05;;;;;;;64.93;37.30;;;0.20;99.90;;;;;;6372222;22;20022;-85
2022/03/03 04:46:31;;;;;;;70.23;37.87;;;0.30;99.90;;;;;;6344024;22;20014;-85
2022/03/03 04:48:59;;;;;;;67.28;37.30;;;0.30;99.90;;;;;;6343585;22;20022;-93
2022/03/03 04:51:26;;;;;;;68.60;38.30;;;0.30;99.90;;;;;;6317586;22;20025;-87
2022/03/03 04:53:52;;;;;;;70.10;38.55;;;0.30;99.90;;;;;;6343820;22;20347;-86
2022/03/03 04:56:18;;;;;;;74.78;38.58;;;0.30;99.90;;;;;;6343752;22;20018;-83
2022/03/03 04:58:44;;;;;;;69.78;38.20;;;0.30;99.90;;;;;;6343962;22;20018;-84
2022/03/03 05:01:11;;;;;;;72.13;39.20;;;0.30;99.90;;;;;;6343753;22;20014;-84
2022/03/03 05:03:37;;;;;;;68.38;39.80;;;0.30;99.90;;;;;;6343264;22;20025;-83
2022/03/03 05:06:03;;;;;;;70.15;38.60;;;0.30;99.90;;;;;;6371646;22;20026;-84
2022/03/03 05:08:29;;;;;;;70.05;38.78;;;0.30;99.90;;;;;;6371589;22;20106;-86
2022/03/03 05:10:55;;;;;;;70.85;37.22;;;0.30;99.90;;;;;;6343713;22;20011;-85
2022/03/03 05:13:20;;;;;;;68.57;38.20;;;0.30;99.90;;;;;;6343629;22;20019;-87
2022/03/03 05:15:46;;;;;;;68.57;37.85;;;0.30;99.90;;;;;;6343483;22;20063;-85
2022/03/03 05:18:12;;;;;;;70.25;38.53;;;0.30;99.90;;;;;;6342971;22;20324;-86
2022/03/03 05:20:38;;;;;;;74.93;38.42;;;0.40;99.90;;;;;;6343147;22;20097;-84
2022/03/03 05:23:05;;;;;;;70.72;40.05;;;0.30;99.90;;;;;;6343437;22;20061;-83
2022/03/03 05:25:36;;;;;;;72.75;40.10;;;0.30;99.90;;;;;;6341068;22;20014;-82
2022/03/03 05:28:01;;;;;;;64.88;37.72;;;0.40;99.90;;;;;;6339917;22;20447;-85
2022/03/03 05:30:27;;;;;;;67.80;38.58;;;0.40;99.90;;;;;;6340924;22;20011;-85
2022/03/03 05:32:54;;;;;;;65.53;36.40;;;0.40;99.90;;;;;;6340194;22;20018;-82
2022/03/03 05:35:21;;;;;;;70.43;38.78;;;0.40;99.90;;;;;;6340415;22;20010;-82
2022/03/03 05:37:50;;;;;;;68.80;39.30;;;0.40;99.90;;;;;;6314907;22;20047;-81
2022/03/03 05:40:21;;;;;;;69.25;37.08;;;0.40;99.90;;;;;;6314471;22;20381;-83
2022/03/03 05:42:58;;;;;;;70.55;38.50;;;0.40;99.90;;;;;;6315444;22;20010;-85
2022/03/03 05:45:25;;;;;;;66.45;37.55;;;0.40;99.90;;;;;;6343679;22;20010;-85
2022/03/03 05:47:52;;;;;;;69.28;38.42;;;0.30;99.90;;;;;;6343650;22;20101;-90
2022/03/03 05:50:17;;;;;;;;;;;0.40;99.90;;;;;;6344806;22;20017;-86
2022/03/03 05:52:43;;;;;;;65.53;37.28;;;0.30;99.90;;;;;;6343811;22;19914;-88
2022/03/03 05:55:10;;;;;;;66.88;37.40;;;0.30;99.90;;;;;;6343603;22;20018;-86
2022/03/03 05:57:41;;;;;;;70.90;38.10;;;0.30;99.90;;;;;;6317282;22;20010;-92
2022/03/03 06:00:17;;;;;;;66.40;37.05;;;0.30;99.90;;;;;;6343780;22;20018;-90
2022/03/03 06:02:51;;;;;;;68.35;37.00;;;0.20;99.90;;;;;;6317380;22;20093;-83
2022/03/03 06:05:26;;;;;;;69.10;39.67;;;0.20;99.90;;;;;;6343035;22;20022;-84
2022/03/03 06:07:54;;;;;;;66.35;37.17;;;0.20;99.90;;;;;;6343077;22;20097;-85
2022/03/03 06:10:23;;;;;;;71.43;38.33;;;0.10;99.90;;;;;;6342825;22;20011;-89
2022/03/03 06:12:54;;;;;;;69.68;37.88;;;0.10;99.90;;;;;;6371191;22;20014;-85
2022/03/03 06:15:22;;;;;;;68.00;37.83;;;0.10;99.90;;;;;;6370872;22;20089;-87
2022/03/03 06:17:49;;;;;;;68.68;38.13;;;0.10;99.90;;;;;;6343319;22;20010;-87
2022/03/03 06:20:18;;;;;;;69.10;38.65;;;0.00;99.90;;;;;;6346230;22;20014;-92
2022/03/03 06:22:43;;;;;;;66.32;37.88;;;0.00;99.90;;;;;;6342415;22;20052;-91
2022/03/03 06:25:09;;;;;;;69.20;38.17;;;0.00;99.90;;;;;;6340731;22;20014;-86
2022/03/03 06:27:35;;;;;;;71.43;39.03;;;0.00;99.90;;;;;;6340922;22;20152;-85
2022/03/03 06:30:01;;;;;;;70.13;39.40;;;0.00;99.90;;;;;;6341285;22;20014;-86
2022/03/03 06:32:26;;;;;;;70.15;39.22;;;0.00;99.90;;;;;;6368527;22;20015;-88
2022/03/03 06:34:52;;;;;;;70.88;38.83;;;-0.10;99.90;;;;;;6374349;22;20017;-89
2022/03/03 06:37:49;;;;;;;77.50;39.78;;;0.00;99.90;;;;;;6343977;22;20018;-87
2022/03/03 06:40:21;;;;;;;73.97;40.05;;;0.00;99.90;;;;;;6319334;22;20011;-88
2022/03/03 06:42:46;;;;;;;78.53;40.83;;;0.00;99.90;;;;;;6319002;22;20018;-90
2022/03/03 06:45:12;;;;;;;84.93;42.38;;;0.00;99.90;;;;;;6345017;22;20050;-91
2022/03/03 06:47:40;;;;;;;79.68;41.13;;;0.00;99.90;;;;;;6375115;22;20089;-94
2022/03/03 06:50:12;;;;;;;84.70;42.55;;;0.00;99.90;;;;;;6318502;22;20018;-89
2022/03/03 06:52:38;;;;;;;84.28;43.15;;;0.10;99.90;;;;;;6327956;22;20129;-92
2022/03/03 06:55:08;;;;;;;83.10;42.70;;;0.20;99.90;;;;;;6294804;22;20025;-91
2022/03/03 06:57:38;;;;;;;82.32;43.50;;;0.20;99.90;;;;;;6324019;22;20010;-89
2022/03/03 07:00:11;;;;;;;81.53;43.35;;;0.20;99.90;;;;;;6324391;22;20097;-89
2022/03/03 07:02:53;;;;;;;85.03;43.83;;;0.30;99.90;;;;;;6354622;22;20447;-89
2022/03/03 07:05:20;;;;;;;82.15;42.60;;;0.30;99.90;;;;;;6325296;22;20017;-92
2022/03/03 07:10:25;;;;;;;87.18;41.97;;;0.40;99.90;;;;;;6346438;22;20023;-91
2022/03/03 07:12:56;;;;;;;88.18;42.92;;;0.50;99.90;;;;;;6319252;22;20379;-91
2022/03/03 07:15:24;;;;;;;80.35;41.42;;;0.60;99.90;;;;;;6292519;22;20011;-90
2022/03/03 07:17:53;;;;;;;81.65;42.55;;;0.70;99.90;;;;;;6317469;22;20029;-92
2022/03/03 07:21:01;;;;;;;85.68;43.80;;;0.80;99.90;;;;;;6319719;22;20093;-92
2022/03/03 07:23:37;;;;;;;78.25;41.92;;;0.90;99.90;;;;;;6292068;22;20022;-81
2022/03/03 07:26:06;;;;;;;79.90;42.40;;;0.90;99.90;;;;;;6311266;22;20068;-83
2022/03/03 07:28:34;;;;;;;79.20;41.20;;;1.00;99.90;;;;;;6338784;22;20386;-85
2022/03/03 07:31:02;;;;;;;86.85;42.97;;;0.90;99.90;;;;;;6285230;22;20023;-85
2022/03/03 07:33:48;;;;;;;77.70;42.85;;;1.00;99.90;;;;;;6337171;22;20007;-83
2022/03/03 07:36:18;;;;;;;79.28;41.50;;;1.00;99.90;;;;;;6337348;22;20064;-83
2022/03/03 07:38:57;;;;;;;79.40;42.38;;;1.10;99.90;;;;;;6311630;22;20185;-83
2022/03/03 07:41:25;;;;;;;80.72;40.83;;;1.10;99.90;;;;;;6285681;22;20011;-82
2022/03/03 07:43:52;;;;;;;80.47;42.13;;;1.10;99.90;;;;;;6310573;22;20033;-82
2022/03/03 07:46:18;;;;;;;77.88;40.92;;;1.10;99.90;;;;;;6310916;22;20014;-83
2022/03/03 07:48:46;;;;;;;82.70;42.55;;;1.20;99.90;;;;;;6311101;22;20019;-83
2022/03/03 07:51:12;;;;;;;75.30;40.65;;;1.20;99.90;;;;;;6337148;22;20015;-85
2022/03/03 07:53:38;;;;;;;79.38;41.88;;;1.30;99.90;;;;;;6338584;22;20452;-83
2022/03/03 07:56:05;;;;;;;80.45;41.70;;;1.30;99.90;;;;;;6310685;22;20011;-84
2022/03/03 07:58:45;;;;;;;78.35;41.50;;;1.30;99.90;;;;;;6285140;22;20011;-84
2022/03/03 08:01:13;;;;;;;79.40;40.97;;;1.40;99.90;;;;;;6336986;22;20018;-83
2022/03/03 08:03:44;;;;;;;71.10;41.03;;;1.50;99.90;;;;;;6310864;22;20089;-83
2022/03/03 08:06:13;;;;;;;75.28;41.35;;;1.40;99.90;;;;;;6311070;22;20064;-83
2022/03/03 08:08:40;;;;;;;74.93;41.15;;;1.50;99.90;;;;;;6310655;22;20479;-81
2022/03/03 08:11:08;;;;;;;74.38;40.80;;;1.60;99.90;;;;;;6310742;22;20018;-82
2022/03/03 08:13:35;;;;;;;73.32;41.65;;;1.60;99.90;;;;;;6310366;22;20026;-82
2022/03/03 08:16:02;;;;;;;74.50;41.17;;;1.60;99.90;;;;;;6309861;22;20019;-83
2022/03/03 08:18:35;;;;;;;75.28;41.63;;;1.70;99.90;;;;;;6310696;22;20068;-82
2022/03/03 08:21:01;;;;;;;69.97;39.67;;;1.70;99.90;;;;;;6336173;22;20512;-84
2022/03/03 08:23:28;;;;;;;74.72;40.55;;;1.80;99.90;;;;;;6310553;22;20023;-83
2022/03/03 08:25:55;;;;;;;76.68;41.78;;;1.80;99.90;;;;;;6310675;22;20022;-83
2022/03/03 08:28:24;;;;;;;76.00;41.53;;;1.90;99.90;;;;;;6310768;22;20103;-83
2022/03/03 08:31:19;;;;;;;71.45;40.42;;;1.90;99.90;;;;;;6284305;22;20015;-83
2022/03/03 08:34:06;;;;;;;72.68;41.30;;;2.00;99.90;;;;;;6281417;22;20011;-83
2022/03/03 08:36:54;;;;;;;73.50;39.97;;;2.10;99.90;;;;;;6310627;22;20023;-82
2022/03/03 08:39:26;;;;;;;72.38;40.22;;;2.20;99.90;;;;;;6336837;22;20017;-81
2022/03/03 08:41:57;;;;;;;67.93;38.33;;;2.30;99.90;;;;;;6312365;22;20506;-82
2022/03/03 08:44:28;;;;;;;63.97;38.30;;;2.30;99.90;;;;;;6312615;22;20022;-81
2022/03/03 08:46:56;;;;;;;68.70;38.33;;;2.40;99.90;;;;;;6286013;22;20018;-82
2022/03/03 08:49:28;;;;;;;67.57;37.53;;;2.50;99.90;;;;;;6283807;22;20022;-83
2022/03/03 08:51:54;;;;;;;61.35;35.75;;;2.50;99.90;;;;;;6282920;22;20050;-82
2022/03/03 08:54:21;;;;;;;57.30;34.63;;;2.60;99.90;;;;;;6310217;22;20096;-83
2022/03/03 08:56:47;;;;;;;60.35;34.83;;;2.70;99.90;;;;;;6337076;22;20033;-83
2022/03/03 08:59:12;;;;;;;58.53;33.83;;;2.80;99.90;;;;;;6286236;22;20506;-83
2022/03/03 09:01:38;;;;;;;55.58;33.58;;;2.90;99.90;;;;;;6312265;22;20015;-83
2022/03/03 09:04:05;;;;;;;57.38;35.05;;;2.90;99.90;;;;;;6286122;22;20015;-87
2022/03/03 09:06:31;;;;;;;55.45;33.83;;;3.00;99.90;;;;;;6286591;22;20085;-84
2022/03/03 09:08:57;;;;;;;59.80;35.15;;;3.10;99.90;;;;;;6286227;22;20112;-83
2022/03/03 09:11:23;;;;;;;59.00;34.40;;;3.20;99.90;;;;;;6311606;22;20018;-85
2022/03/03 09:13:49;;;;;;;54.33;33.80;;;3.20;99.90;;;;;;6339760;22;20093;-85
2022/03/03 09:16:17;;;;;;;57.73;33.87;;;3.30;99.90;;;;;;6312036;22;20054;-85
2022/03/03 09:18:47;;;;;;;50.75;31.85;;;3.30;99.90;;;;;;6338430;22;20448;-85
2022/03/03 09:21:13;;;;;;;56.88;35.08;;;3.40;99.90;;;;;;6339434;22;20093;-85
2022/03/03 09:23:39;;;;;;;60.78;35.08;;;3.40;99.90;;;;;;6312106;22;20493;-84
2022/03/03 09:26:05;;;;;;;54.27;33.03;;;3.50;99.90;;;;;;6312005;22;20050;-85
2022/03/03 09:28:31;;;;;;;53.65;33.55;;;3.50;99.90;;;;;;6311957;22;20026;-85
2022/03/03 09:30:56;;;;;;;54.20;33.60;;;3.60;99.90;;;;;;6311997;22;20015;-84
2022/03/03 09:33:23;;;;;;;54.20;32.10;;;3.70;99.90;;;;;;6286289;22;20054;-83
2022/03/03 09:35:50;;;;;;;52.05;31.08;;;3.80;99.90;;;;;;6311968;22;20022;-85
2022/03/03 09:38:16;;;;;;;53.53;34.22;;;3.80;99.90;;;;;;6339491;22;20014;-84
2022/03/03 09:40:42;;;;;;;53.58;34.05;;;3.90;99.90;;;;;;6339287;22;20527;-84
2022/03/03 09:43:09;;;;;;;54.47;33.25;;;4.00;99.90;;;;;;6337764;22;20329;-85
2022/03/03 09:45:37;;;;;;;43.80;28.23;;;4.00;99.90;;;;;;6339467;22;20357;-84
2022/03/03 09:48:05;;;;;;;47.03;29.80;;;4.10;99.90;;;;;;6285628;22;20465;-82
2022/03/03 09:50:32;;;;;;;46.70;29.63;;;4.20;99.90;;;;;;6311254;22;20018;-83
2022/03/03 09:53:18;;;;;;;44.08;27.83;;;4.30;99.90;;;;;;6311532;22;20010;-85
2022/03/03 09:55:49;;;;;;;40.20;25.90;;;4.50;99.90;;;;;;6286025;22;20046;-84
2022/03/03 09:58:15;;;;;;;41.58;27.48;;;4.60;99.90;;;;;;6286515;22;20049;-84
2022/03/03 10:00:42;;;;;;;40.67;26.48;;;4.70;99.90;;;;;;6311702;22;20054;-84
2022/03/03 10:03:10;;;;;;;36.77;25.20;;;4.80;99.90;;;;;;6286107;22;20041;-84
2022/03/03 10:05:39;;;;;;;39.10;26.13;;;4.90;99.90;;;;;;6312186;22;20344;-84
2022/03/03 10:08:12;;;;;;;41.05;26.67;;;5.00;99.90;;;;;;6311644;22;20072;-84
2022/03/03 10:10:40;;;;;;;35.63;23.50;;;5.10;99.90;;;;;;6285437;22;20443;-84
2022/03/03 10:13:07;;;;;;;40.88;26.02;;;5.20;99.90;;;;;;6311538;22;20027;-84
2022/03/03 10:15:33;;;;;;;;;;;5.40;99.90;;;;;;6312072;22;20038;-83
2022/03/03 10:18:20;;;;;;;40.35;25.67;;;5.50;99.90;;;;;;6339170;22;20332;-84
2022/03/03 10:20:48;;;;;;;39.97;25.38;;;5.60;99.90;;;;;;6311223;22;20486;-84
2022/03/03 10:23:14;;;;;;;34.78;22.90;;;5.80;99.90;;;;;;6311617;22;20351;-84
2022/03/03 10:25:42;;;;;;;39.53;26.23;;;5.80;99.90;;;;;;6311637;22;20015;-84
2022/03/03 10:28:14;;;;;;;36.25;23.35;;;6.00;99.90;;;;;;6311771;22;20014;-84
2022/03/03 10:30:54;;;;;;;37.13;24.15;;;6.00;99.90;;;;;;6311361;22;20018;-83
2022/03/03 10:33:22;;;;;;;31.98;22.60;;;6.10;99.90;;;;;;6339239;22;20019;-84
2022/03/03 10:36:14;;;;;;;35.70;22.63;;;6.10;99.90;;;;;;6339348;22;20093;-84
2022/03/03 10:39:07;;;;;;;34.75;23.05;;;6.20;99.90;;;;;;6339176;22;20019;-85
2022/03/03 10:41:46;;;;;;;34.03;22.40;;;6.40;99.90;;;;;;6307117;22;20452;-84
2022/03/03 10:44:27;;;;;;;32.22;21.58;;;6.50;99.90;;;;;;6311180;22;20015;-84
2022/03/03 10:47:11;;;;;;;33.35;23.08;;;6.60;99.90;;;;;;6338894;22;20029;-83
2022/03/03 10:49:40;;;;;;;30.77;21.75;;;6.80;99.90;;;;;;6285419;22;20026;-83
2022/03/03 10:52:11;;;;;;;30.15;20.88;;;6.80;99.90;;;;;;6311191;22;20059;-84
2022/03/03 10:54:55;;;;;;;30.90;20.10;;;6.90;99.90;;;;;;6311042;22;20015;-84
2022/03/03 10:57:38;;;;;;;28.35;20.02;;;7.00;99.90;;;;;;6310918;22;20019;-84
2022/03/03 11:00:28;;;;;;;30.48;20.50;;;7.20;99.90;;;;;;6338743;22;20471;-84
2022/03/03 11:02:57;;;;;;;32.47;21.80;;;7.20;99.90;;;;;;6338170;22;20019;-84
2022/03/03 11:05:24;;;;;;;32.78;22.30;;;7.30;99.90;;;;;;6338668;22;20011;-85
2022/03/03 11:07:52;;;;;;;32.72;22.25;;;7.30;99.90;;;;;;6311011;22;20448;-86
2022/03/03 11:10:22;;;;;;;30.60;21.40;;;7.40;99.90;;;;;;6311096;22;20105;-84
2022/03/03 11:12:49;;;;;;;31.30;21.75;;;7.40;99.90;;;;;;6338709;22;20014;-85
2022/03/03 11:15:17;;;;;;;33.38;22.23;;;7.50;99.90;;;;;;6339002;22;20019;-85
2022/03/03 11:17:47;;;;;;;35.92;25.48;;;7.60;99.90;;;;;;6337171;22;20058;-85
2022/03/03 11:20:17;;;;;;;38.53;25.80;;;7.50;99.90;;;;;;6337078;22;20019;-84
2022/03/03 11:22:44;;;;;;;36.85;24.92;;;7.60;99.90;;;;;;6308549;22;20071;-85
2022/03/03 11:25:24;;;;;;;;;;;7.60;99.90;;;;;;6310759;22;20050;-86
2022/03/03 11:28:04;;;;;;;37.97;25.48;;;7.60;99.90;;;;;;6338795;22;19918;-85
2022/03/03 11:30:31;;;;;;;37.10;26.00;;;7.50;99.90;;;;;;6338664;22;20023;-84
2022/03/03 11:33:18;;;;;;;34.33;24.00;;;7.60;99.90;;;;;;6310224;22;20010;-84
2022/03/03 11:35:56;;;;;;;36.22;24.52;;;7.70;99.90;;;;;;6336728;22;20021;-84
2022/03/03 11:38:24;;;;;;;35.85;24.80;;;7.70;99.90;;;;;;6309950;22;20022;-85
2022/03/03 11:40:56;;;;;;;36.25;25.67;;;7.70;99.90;;;;;;6284103;22;20023;-84
2022/03/03 11:43:22;;;;;;;34.90;24.25;;;7.70;99.90;;;;;;6310055;22;20019;-84
2022/03/03 11:45:50;;;;;;;34.65;25.00;;;7.80;99.90;;;;;;6337065;22;20458;-84
2022/03/03 11:48:19;;;;;;;32.13;23.38;;;7.80;99.90;;;;;;6338894;22;20101;-85
2022/03/03 11:50:45;;;;;;;35.25;25.10;;;7.80;99.90;;;;;;6338926;22;20038;-84
2022/03/03 11:53:11;;;;;;;35.37;25.23;;;7.90;99.90;;;;;;6310732;22;20045;-84
2022/03/03 11:55:37;;;;;;;33.17;23.57;;;8.00;99.90;;;;;;6285131;22;20021;-84
2022/03/03 11:58:05;;;;;;;34.63;24.25;;;8.00;99.90;;;;;;6284947;22;20019;-84
2022/03/03 12:00:33;;;;;;;35.80;24.60;;;8.00;99.90;;;;;;6310754;22;20015;-83
2022/03/03 12:03:03;;;;;;;37.05;24.83;;;8.00;99.90;;;;;;6338200;22;20080;-83
2022/03/03 12:05:30;;;;;;;33.05;23.55;;;8.00;99.90;;;;;;6310766;22;20038;-84
2022/03/03 12:07:57;;;;;;;31.67;22.85;;;8.10;99.90;;;;;;6310645;22;20022;-84
2022/03/03 12:10:23;;;;;;;35.15;23.88;;;8.10;99.90;;;;;;6338302;22;20022;-85
2022/03/03 12:12:49;;;;;;;32.33;23.00;;;8.10;99.90;;;;;;6338464;22;20075;-84
2022/03/03 12:15:15;;;;;;;30.25;20.60;;;8.20;99.90;;;;;;6340033;22;20048;-84
2022/03/03 12:17:46;;;;;;;36.28;24.58;;;8.20;99.80;;;;;;6312718;22;20014;-85
2022/03/03 12:20:24;;;;;;;30.80;21.45;;;8.20;99.90;;;;;;6286988;22;20089;-83
2022/03/03 12:23:13;;;;;;;30.98;22.25;;;8.20;99.90;;;;;;6312638;22;20355;-84
2022/03/03 12:25:51;;;;;;;34.65;24.25;;;8.30;99.70;;;;;;6339953;22;20352;-84
2022/03/03 12:28:17;;;;;;;;;;;8.30;99.80;;;;;;6340461;22;20098;-84
2022/03/03 12:30:47;;;;;;;29.52;20.02;;;8.40;99.90;;;;;;6286581;22;19922;-84
2022/03/03 12:33:24;;;;;;;29.38;19.27;;;8.40;99.40;;;;;;6286458;22;20442;-84
2022/03/03 12:35:57;;;;;;;30.23;19.73;;;8.40;97.60;;;;;;6286710;22;20462;-84
2022/03/03 12:38:22;;;;;;;27.17;18.20;;;8.40;97.70;;;;;;6286923;22;20026;-84
2022/03/03 12:40:50;;;;;;;26.10;19.07;;;8.40;97.00;;;;;;6312495;22;20011;-84
2022/03/03 12:43:18;;;;;;;27.88;18.48;;;8.50;96.30;;;;;;6339913;22;20018;-87
2022/03/03 12:45:45;;;;;;;29.25;20.02;;;8.50;95.40;;;;;;6310931;22;20022;-85
2022/03/03 12:48:11;;;;;;;25.35;17.92;;;8.50;95.30;;;;;;6310124;22;20015;-85
2022/03/03 12:50:37;;;;;;;26.17;18.50;;;8.50;95.70;;;;;;6312098;22;20459;-85
2022/03/03 12:53:06;;;;;;;29.73;20.65;;;8.50;96.10;;;;;;6339921;22;20011;-84
2022/03/03 12:55:37;;;;;;;31.10;21.08;;;8.60;96.50;;;;;;6339963;22;20011;-85